Time;durP1;ratioP1;P1;durP2;ratioP2;P2;SDS_P1;SDS_P2;PMS_P1;PMS_P2;Temp;Humidity;BMP_temperature;BMP_pressure;BME280_temperature;BME280_humidity;BME280_pressure;Samples;Min_cycle;Max_cycle;Signal;HPM_P1;HPM_P2
2024/04/05 00:01:18;;;;;;;1.75;0.98;;;13.00;99.90;;;;;;4950623;28;20106;-68
2024/04/05 00:03:45;;;;;;;3.28;0.65;;;13.10;99.90;;;;;;4949778;28;20031;-68
2024/04/05 00:06:11;;;;;;;4.07;0.90;;;13.10;99.90;;;;;;4953158;28;20042;-67
2024/04/05 00:08:37;;;;;;;2.42;0.60;;;13.10;99.90;;;;;;4950229;28;20081;-68
2024/04/05 00:11:04;;;;;;;4.18;1.10;;;13.10;99.90;;;;;;4956009;28;20035;-68
2024/04/05 00:13:30;;;;;;;2.42;0.77;;;13.10;99.90;;;;;;4950642;28;20447;-68
2024/04/05 00:15:56;;;;;;;5.13;0.90;;;13.20;99.90;;;;;;4952162;28;20059;-68
2024/04/05 00:18:22;;;;;;;5.72;0.95;;;13.20;99.90;;;;;;4947787;28;20368;-68
2024/04/05 00:20:48;;;;;;;2.17;0.68;;;13.20;99.90;;;;;;4951904;28;20039;-67
2024/04/05 00:23:14;;;;;;;5.03;1.30;;;13.30;99.90;;;;;;4949044;28;20177;-67
2024/04/05 00:25:43;;;;;;;2.92;0.75;;;13.20;99.90;;;;;;4952433;28;20545;-68
2024/04/05 00:28:08;;;;;;;5.55;0.98;;;13.10;99.90;;;;;;4948948;28;20039;-68
2024/04/05 00:30:35;;;;;;;5.18;1.05;;;13.00;99.90;;;;;;4950029;28;20038;-67
2024/04/05 00:33:01;;;;;;;4.40;1.08;;;13.00;99.90;;;;;;4949862;28;20031;-68
2024/04/05 00:35:27;;;;;;;2.10;0.60;;;12.90;99.90;;;;;;4950641;28;20043;-68
2024/04/05 00:37:53;;;;;;;4.22;0.95;;;12.90;99.90;;;;;;4949187;28;20046;-68
2024/04/05 00:40:18;;;;;;;5.32;0.90;;;12.90;99.90;;;;;;4950016;28;20291;-68
2024/04/05 00:42:44;;;;;;;5.53;1.27;;;12.90;99.90;;;;;;4949512;28;20032;-67
2024/04/05 00:45:10;;;;;;;3.38;0.90;;;12.90;99.90;;;;;;4952607;28;20780;-68
2024/04/05 00:47:36;;;;;;;2.97;0.73;;;12.80;99.90;;;;;;4949976;28;20039;-68
2024/04/05 00:50:06;;;;;;;1.92;0.70;;;12.80;99.90;;;;;;4951434;28;20059;-68
2024/04/05 00:52:34;;;;;;;6.07;1.00;;;12.80;99.90;;;;;;4951699;28;20041;-68
2024/04/05 00:55:00;;;;;;;3.13;0.93;;;12.80;99.90;;;;;;4951978;28;20775;-68
2024/04/05 00:57:26;;;;;;;2.90;0.80;;;12.80;99.90;;;;;;4950826;28;20038;-68
2024/04/05 00:59:52;;;;;;;5.15;1.02;;;12.80;99.90;;;;;;4950533;28;20364;-68
2024/04/05 01:02:19;;;;;;;4.18;0.82;;;12.70;99.90;;;;;;4951228;28;21607;-67
2024/04/05 01:04:45;;;;;;;8.90;1.63;;;12.70;99.90;;;;;;4951624;28;20034;-68
2024/04/05 01:07:11;;;;;;;4.13;0.85;;;12.70;99.90;;;;;;4950926;28;20031;-68
2024/04/05 01:09:37;;;;;;;5.57;1.40;;;12.70;99.90;;;;;;4951541;28;20118;-67
2024/04/05 01:12:03;;;;;;;3.72;0.80;;;12.60;99.90;;;;;;4948722;28;20035;-68
2024/04/05 01:14:29;;;;;;;5.78;1.30;;;12.50;99.90;;;;;;4952302;28;20039;-68
2024/04/05 01:16:55;;;;;;;6.45;1.10;;;12.40;99.90;;;;;;4947735;28;20031;-68
2024/04/05 01:19:22;;;;;;;5.03;0.70;;;12.40;99.90;;;;;;4951613;28;20177;-68
2024/04/05 01:21:51;;;;;;;2.63;0.77;;;12.50;99.90;;;;;;4947374;28;20045;-67
2024/04/05 01:24:17;;;;;;;7.13;1.63;;;12.60;99.90;;;;;;4951177;28;20058;-68
2024/04/05 01:26:43;;;;;;;3.15;0.85;;;12.60;99.90;;;;;;4951770;28;20035;-67
2024/04/05 01:29:09;;;;;;;6.40;0.90;;;12.60;99.90;;;;;;4948588;28;20030;-68
2024/04/05 01:31:35;;;;;;;1.80;0.68;;;12.50;99.90;;;;;;4951547;28;20046;-68
2024/04/05 01:34:01;;;;;;;5.22;1.00;;;12.40;99.90;;;;;;4950633;28;20065;-68
2024/04/05 01:36:26;;;;;;;4.20;0.60;;;12.40;99.90;;;;;;4951254;28;20434;-67
2024/04/05 01:38:52;;;;;;;2.15;0.57;;;12.40;99.90;;;;;;4949546;28;20031;-68
2024/04/05 01:41:21;;;;;;;2.92;0.80;;;12.30;99.90;;;;;;4948455;28;20027;-67
2024/04/05 01:43:47;;;;;;;4.47;0.77;;;12.40;99.90;;;;;;4949332;28;20038;-68
2024/04/05 01:46:13;;;;;;;5.70;0.77;;;12.30;99.90;;;;;;4951827;28;20023;-68
2024/04/05 01:48:39;;;;;;;4.15;0.75;;;12.30;99.90;;;;;;4949805;28;20039;-67
2024/04/05 01:51:05;;;;;;;5.32;1.40;;;12.30;99.90;;;;;;4950666;28;20098;-67
2024/04/05 01:53:30;;;;;;;2.28;0.90;;;12.30;99.90;;;;;;4951165;28;20043;-68
2024/04/05 01:56:02;;;;;;;3.47;1.30;;;12.20;99.90;;;;;;4950624;28;20043;-68
2024/04/05 01:58:30;;;;;;;1.92;0.82;;;12.10;99.90;;;;;;4950751;28;20037;-68
2024/04/05 02:01:03;;;;;;;5.95;0.70;;;12.00;99.90;;;;;;4949960;28;20050;-67
2024/04/05 02:03:29;;;;;;;2.75;0.63;;;12.00;99.90;;;;;;4950785;28;20041;-68
2024/04/05 02:05:55;;;;;;;1.55;0.50;;;12.00;99.90;;;;;;4950866;28;20035;-68
2024/04/05 02:08:21;;;;;;;4.13;0.60;;;12.00;99.90;;;;;;4949732;28;20051;-68
2024/04/05 02:10:47;;;;;;;4.03;0.47;;;12.10;99.90;;;;;;4950032;28;20039;-68
2024/04/05 02:13:12;;;;;;;4.65;0.77;;;12.20;99.90;;;;;;4949470;28;20109;-68
2024/04/05 02:15:39;;;;;;;3.13;0.70;;;12.20;99.90;;;;;;4950305;28;20035;-68
2024/04/05 02:18:08;;;;;;;2.33;0.70;;;12.20;99.90;;;;;;4949189;28;20031;-68
2024/04/05 02:20:34;;;;;;;2.35;0.60;;;12.10;99.90;;;;;;4949678;28;20026;-68
2024/04/05 02:23:00;;;;;;;6.65;1.10;;;12.10;99.90;;;;;;4949100;28;20110;-68
2024/04/05 02:25:26;;;;;;;4.90;0.77;;;12.10;99.90;;;;;;4949948;28;20027;-68
2024/04/05 02:27:51;;;;;;;4.95;0.60;;;12.10;99.90;;;;;;4952181;28;20066;-67
2024/04/05 02:30:20;;;;;;;7.28;1.20;;;12.00;99.90;;;;;;4949864;28;20047;-68
2024/04/05 02:32:46;;;;;;;6.07;1.00;;;12.00;99.90;;;;;;4949214;28;20035;-67
2024/04/05 02:35:12;;;;;;;1.55;0.43;;;11.90;99.90;;;;;;4948268;28;20041;-68
2024/04/05 02:37:38;;;;;;;5.32;0.93;;;11.80;99.90;;;;;;4950846;28;20797;-68
2024/04/05 02:40:04;;;;;;;4.15;0.93;;;11.80;99.90;;;;;;4949327;28;20035;-67
2024/04/05 02:42:30;;;;;;;4.38;0.73;;;11.80;99.90;;;;;;4949094;28;20030;-67
2024/04/05 02:44:56;;;;;;;4.32;1.33;;;11.70;99.90;;;;;;4947908;28;20035;-68
2024/04/05 02:47:21;;;;;;;4.03;1.33;;;11.80;99.90;;;;;;4950196;28;20082;-68
2024/04/05 02:49:47;;;;;;;4.43;0.77;;;11.80;99.90;;;;;;4947404;28;20122;-68
2024/04/05 02:52:13;;;;;;;4.88;0.75;;;11.80;99.90;;;;;;4951483;28;20046;-68
2024/04/05 02:54:39;;;;;;;3.50;0.85;;;11.80;99.90;;;;;;4948007;28;20031;-68
2024/04/05 02:57:04;;;;;;;4.53;0.90;;;11.90;99.90;;;;;;4948924;28;20122;-67
2024/04/05 02:59:30;;;;;;;1.52;0.95;;;11.90;99.90;;;;;;4949009;28;20118;-67
2024/04/05 03:01:57;;;;;;;4.57;1.00;;;11.90;99.90;;;;;;4950191;28;20105;-67
2024/04/05 03:04:22;;;;;;;4.45;1.20;;;12.00;99.90;;;;;;4947062;28;20035;-68
2024/04/05 03:06:48;;;;;;;5.32;1.00;;;12.10;99.90;;;;;;4949869;28;20031;-68
2024/04/05 03:09:14;;;;;;;14.57;1.42;;;12.10;99.90;;;;;;4946075;28;20649;-68
2024/04/05 03:11:40;;;;;;;3.28;0.90;;;12.20;99.90;;;;;;4951029;28;20031;-67
2024/04/05 03:14:06;;;;;;;4.72;0.90;;;12.20;99.90;;;;;;4952035;28;20062;-68
2024/04/05 03:16:32;;;;;;;3.47;0.93;;;12.30;99.90;;;;;;4953090;28;20031;-68
2024/04/05 03:18:57;;;;;;;5.82;1.10;;;12.30;99.90;;;;;;4953769;28;20039;-68
2024/04/05 03:21:23;;;;;;;5.65;1.10;;;12.20;99.90;;;;;;4952001;28;20115;-67
2024/04/05 03:23:49;;;;;;;4.35;1.00;;;12.30;99.90;;;;;;4953525;28;20585;-68
2024/04/05 03:26:15;;;;;;;5.13;1.00;;;12.30;99.90;;;;;;4953447;28;20106;-68
2024/04/05 03:28:40;;;;;;;7.25;1.00;;;12.20;99.90;;;;;;4953126;28;20074;-67
2024/04/05 03:31:06;;;;;;;4.82;1.02;;;12.10;99.90;;;;;;4953247;28;20034;-67
2024/04/05 03:33:32;;;;;;;1.77;0.73;;;12.00;99.90;;;;;;4951318;28;20541;-67
2024/04/05 03:36:04;;;;;;;7.32;1.80;;;11.90;99.90;;;;;;4952393;28;20041;-68
2024/04/05 03:38:30;;;;;;;3.72;1.10;;;11.80;99.90;;;;;;4952474;28;20041;-67
2024/04/05 03:40:56;;;;;;;3.60;1.08;;;11.90;99.90;;;;;;4952543;28;20052;-67
2024/04/05 03:43:22;;;;;;;3.60;0.88;;;11.90;99.90;;;;;;4952412;28;20038;-68
2024/04/05 03:45:48;;;;;;;4.72;0.98;;;12.00;99.90;;;;;;4951797;28;20041;-68
2024/04/05 03:48:13;;;;;;;3.97;0.77;;;12.00;99.90;;;;;;4951578;28;20094;-67
2024/04/05 03:50:39;;;;;;;4.32;0.98;;;12.00;99.90;;;;;;4952112;28;20027;-67
2024/04/05 03:53:05;;;;;;;1.73;1.10;;;12.00;99.90;;;;;;4950678;28;20023;-68
2024/04/05 03:55:31;;;;;;;7.60;1.17;;;12.10;99.90;;;;;;4951335;28;20596;-68
2024/04/05 03:57:56;;;;;;;14.38;2.80;;;12.10;99.90;;;;;;4951843;28;20035;-68
2024/04/05 04:00:22;;;;;;;3.60;0.70;;;12.20;99.90;;;;;;4952616;28;20035;-67
2024/04/05 04:02:55;;;;;;;5.72;1.00;;;12.20;99.90;;;;;;4951642;28;20110;-67
2024/04/05 04:05:21;;;;;;;5.10;1.00;;;12.00;99.90;;;;;;4952391;28;20499;-68
2024/04/05 04:07:47;;;;;;;4.75;1.10;;;12.00;99.90;;;;;;4951792;28;20419;-67
2024/04/05 04:10:13;;;;;;;1.40;0.63;;;11.90;99.90;;;;;;4951002;28;20045;-67
2024/04/05 04:12:39;;;;;;;4.93;0.98;;;11.90;99.90;;;;;;4952531;28;20039;-67
2024/04/05 04:15:10;;;;;;;5.90;1.15;;;11.80;99.90;;;;;;4951391;28;20038;-68
2024/04/05 04:17:36;;;;;;;6.85;1.13;;;11.70;99.90;;;;;;4953311;28;20046;-67
2024/04/05 04:20:04;;;;;;;3.67;0.80;;;11.70;99.90;;;;;;4951922;28;20546;-67
2024/04/05 04:22:31;;;;;;;3.72;0.90;;;11.60;99.90;;;;;;4951679;28;20031;-68
2024/04/05 04:24:56;;;;;;;3.42;0.95;;;11.60;99.90;;;;;;4953060;28;20035;-67
2024/04/05 04:27:22;;;;;;;2.85;0.95;;;11.50;99.90;;;;;;4952407;28;20050;-67
2024/04/05 04:29:48;;;;;;;5.07;1.17;;;11.60;99.90;;;;;;4950263;28;20183;-67
2024/04/05 04:32:15;;;;;;;5.45;0.90;;;11.60;99.90;;;;;;4953095;28;20134;-67
2024/04/05 04:34:41;;;;;;;7.50;0.93;;;11.50;99.90;;;;;;4950035;28;20491;-68
2024/04/05 04:37:06;;;;;;;6.35;1.00;;;11.60;99.90;;;;;;4951952;28;20035;-68
2024/04/05 04:39:33;;;;;;;3.13;1.20;;;11.60;99.90;;;;;;4950228;28;20031;-67
2024/04/05 04:41:58;;;;;;;2.78;0.70;;;11.50;99.90;;;;;;4952127;28;20031;-67
2024/04/05 04:44:24;;;;;;;6.07;1.15;;;11.40;99.90;;;;;;4951520;28;20118;-68
2024/04/05 04:46:50;;;;;;;5.05;1.33;;;11.50;99.90;;;;;;4950736;28;20034;-68
2024/04/05 04:49:16;;;;;;;3.60;1.15;;;11.50;99.90;;;;;;4950766;28;20060;-67
2024/04/05 04:51:41;;;;;;;2.92;1.05;;;11.40;99.90;;;;;;4948842;28;20023;-68
2024/04/05 04:54:07;;;;;;;9.00;1.40;;;11.40;99.90;;;;;;4950763;28;20545;-67
2024/04/05 04:56:33;;;;;;;4.57;1.00;;;11.50;99.90;;;;;;4949915;28;20054;-68
2024/04/05 04:58:59;;;;;;;3.75;0.93;;;11.50;99.90;;;;;;4950588;28;20687;-68
2024/04/05 05:01:24;;;;;;;3.15;0.90;;;11.50;99.90;;;;;;4950239;28;20470;-67
2024/04/05 05:03:52;;;;;;;5.38;1.33;;;11.60;99.90;;;;;;4949670;28;20402;-67
2024/04/05 05:06:18;;;;;;;4.50;1.33;;;11.60;99.90;;;;;;4950399;28;20033;-67
2024/04/05 05:08:44;;;;;;;2.40;1.00;;;11.60;99.90;;;;;;4950416;28;20035;-67
2024/04/05 05:11:09;;;;;;;3.05;1.10;;;11.70;99.90;;;;;;4949331;28;20114;-67
2024/04/05 05:13:35;;;;;;;5.97;1.00;;;11.80;99.90;;;;;;4951270;28;20384;-67
2024/04/05 05:16:01;;;;;;;4.63;1.30;;;11.90;99.90;;;;;;4950730;28;20035;-68
2024/04/05 05:18:27;;;;;;;5.20;0.93;;;12.00;99.90;;;;;;4951313;28;20046;-67
2024/04/05 05:20:52;;;;;;;7.80;1.30;;;12.20;99.90;;;;;;4948073;28;20033;-67
2024/04/05 05:23:18;;;;;;;7.22;1.20;;;12.20;99.90;;;;;;4952134;28;20047;-67
2024/04/05 05:25:45;;;;;;;5.72;0.90;;;12.20;99.90;;;;;;4949174;28;20555;-68
2024/04/05 05:28:12;;;;;;;3.92;0.80;;;12.20;99.90;;;;;;4952613;28;20490;-68
2024/04/05 05:30:38;;;;;;;4.10;1.00;;;12.20;99.90;;;;;;4948546;28;20635;-67
2024/04/05 05:33:05;;;;;;;3.88;0.60;;;12.20;99.90;;;;;;4951205;28;20039;-67
2024/04/05 05:35:31;;;;;;;4.75;0.65;;;12.20;99.90;;;;;;4948503;28;20023;-67
2024/04/05 05:38:00;;;;;;;3.50;0.93;;;12.10;99.90;;;;;;4951018;28;20113;-67
2024/04/05 05:40:26;;;;;;;4.88;1.02;;;12.00;99.90;;;;;;4947161;28;20042;-67
2024/04/05 05:42:52;;;;;;;6.30;1.27;;;11.90;99.90;;;;;;4950970;28;20023;-67
2024/04/05 05:45:21;;;;;;;4.47;1.20;;;11.90;99.90;;;;;;4948390;28;20031;-67
2024/04/05 05:47:55;;;;;;;5.05;1.20;;;12.00;99.90;;;;;;4949585;28;20043;-66
2024/04/05 05:50:22;;;;;;;6.70;0.85;;;12.00;99.90;;;;;;4950064;28;20435;-67
2024/04/05 05:52:48;;;;;;;3.30;1.10;;;12.00;99.90;;;;;;4951030;28;20046;-67
2024/04/05 05:55:14;;;;;;;4.07;1.10;;;12.00;99.90;;;;;;4950224;28;20082;-67
2024/04/05 05:57:40;;;;;;;3.75;0.85;;;12.20;99.90;;;;;;4951033;28;20035;-67
2024/04/05 06:00:09;;;;;;;3.80;0.70;;;12.40;99.90;;;;;;4950238;28;20031;-67
2024/04/05 06:02:39;;;;;;;4.55;1.10;;;12.40;99.90;;;;;;4950292;28;20034;-67
2024/04/05 06:05:07;;;;;;;4.68;0.90;;;12.50;99.90;;;;;;4949587;28;20023;-67
2024/04/05 06:07:33;;;;;;;4.65;1.20;;;12.80;99.90;;;;;;4948591;28;20045;-67
2024/04/05 06:09:59;;;;;;;6.20;0.90;;;13.20;99.90;;;;;;4949812;28;20038;-67
2024/04/05 06:12:25;;;;;;;3.05;1.13;;;13.80;99.90;;;;;;4949565;28;20035;-67
2024/04/05 06:14:55;;;;;;;6.55;1.35;;;14.30;99.90;;;;;;4949719;28;20125;-67
2024/04/05 06:17:23;;;;;;;4.85;1.00;;;14.80;99.90;;;;;;4949131;28;20031;-67
2024/04/05 06:19:56;;;;;;;6.40;1.10;;;15.20;99.90;;;;;;4949197;28;20039;-70
2024/04/05 06:22:24;;;;;;;3.35;0.93;;;15.30;99.90;;;;;;4949645;28;20093;-69
2024/04/05 06:24:54;;;;;;;6.03;1.38;;;15.30;99.90;;;;;;4949472;28;20035;-69
2024/04/05 06:27:20;;;;;;;6.68;1.30;;;15.60;99.90;;;;;;4950345;28;20098;-69
2024/04/05 06:29:54;;;;;;;3.88;0.80;;;15.60;99.90;;;;;;4948385;28;20085;-74
2024/04/05 06:32:20;;;;;;;3.92;1.23;;;15.40;99.90;;;;;;4951236;28;20051;-67
2024/04/05 06:34:46;;;;;;;7.63;1.17;;;15.20;99.90;;;;;;4948514;28;20058;-68
2024/04/05 06:37:15;;;;;;;4.60;1.15;;;14.90;99.90;;;;;;4951054;28;20062;-68
2024/04/05 06:39:41;;;;;;;3.08;1.05;;;14.50;99.90;;;;;;4949204;28;20566;-68
2024/04/05 06:42:08;;;;;;;4.95;1.20;;;14.50;99.90;;;;;;4947695;28;20023;-67
2024/04/05 06:44:39;;;;;;;6.85;1.35;;;14.40;99.90;;;;;;4948446;28;20125;-68
2024/04/05 06:47:09;;;;;;;4.05;0.90;;;14.50;99.90;;;;;;4949669;28;20534;-67
2024/04/05 06:49:38;;;;;;;7.18;0.93;;;14.60;99.90;;;;;;4949139;28;20039;-71
2024/04/05 06:52:08;;;;;;;13.63;1.40;;;14.60;99.90;;;;;;4950795;28;20118;-67
2024/04/05 06:54:35;;;;;;;4.32;1.08;;;14.70;99.90;;;;;;4949151;28;20038;-65
2024/04/05 06:57:02;;;;;;;5.72;1.30;;;15.00;99.90;;;;;;4948351;28;20058;-66
2024/04/05 06:59:32;;;;;;;4.25;1.27;;;15.10;99.90;;;;;;4948180;28;20518;-67
2024/04/05 07:01:58;;;;;;;4.15;1.15;;;15.20;99.90;;;;;;4949422;28;20035;-68
2024/04/05 07:04:25;;;;;;;8.88;1.20;;;15.20;99.90;;;;;;4948864;28;20394;-64
2024/04/05 07:06:52;;;;;;;8.15;1.75;;;14.90;99.90;;;;;;4948027;28;20146;-65
2024/04/05 07:09:28;;;;;;;7.78;1.25;;;14.90;99.90;;;;;;4948851;28;20667;-65
2024/04/05 07:11:54;;;;;;;4.07;1.00;;;14.90;99.90;;;;;;4946709;28;20046;-66
2024/04/05 07:14:19;;;;;;;8.88;1.67;;;14.90;99.90;;;;;;4948664;28;20027;-66
2024/04/05 07:16:46;;;;;;;8.75;1.35;;;15.00;99.90;;;;;;4945959;28;20499;-66
2024/04/05 07:19:13;;;;;;;5.38;1.05;;;15.10;99.90;;;;;;4946377;28;20027;-66
2024/04/05 07:21:39;;;;;;;9.68;1.23;;;15.10;99.90;;;;;;4947555;28;20038;-65
2024/04/05 07:24:05;;;;;;;7.68;1.63;;;15.00;99.90;;;;;;4948612;28;20036;-66
2024/04/05 07:26:31;;;;;;;7.57;1.77;;;15.00;99.90;;;;;;4948635;28;20038;-67
2024/04/05 07:28:57;;;;;;;6.63;1.00;;;15.10;99.90;;;;;;4948293;28;20032;-67
2024/04/05 07:31:23;;;;;;;6.70;1.58;;;15.10;99.90;;;;;;4948294;28;20042;-70
2024/04/05 07:33:49;;;;;;;9.07;1.48;;;15.20;99.90;;;;;;4949089;28;20043;-71
2024/04/05 07:36:16;;;;;;;8.90;1.42;;;15.20;99.90;;;;;;4948257;28;20039;-71
2024/04/05 07:38:42;;;;;;;6.95;1.10;;;15.20;99.90;;;;;;4950791;28;20031;-72
2024/04/05 07:41:09;;;;;;;4.35;1.00;;;15.20;99.90;;;;;;4947815;28;20031;-68
2024/04/05 07:43:34;;;;;;;6.80;1.60;;;15.40;99.90;;;;;;4950110;28;20260;-69
2024/04/05 07:46:00;;;;;;;10.50;1.17;;;15.60;99.90;;;;;;4948773;28;20035;-69
2024/04/05 07:48:27;;;;;;;8.80;1.02;;;15.80;99.90;;;;;;4950016;28;20062;-70
2024/04/05 07:50:57;;;;;;;7.53;1.23;;;15.90;99.90;;;;;;4946956;28;20035;-70
2024/04/05 07:53:24;;;;;;;2.88;1.00;;;16.10;99.90;;;;;;4949559;28;20035;-71
2024/04/05 07:55:50;;;;;;;7.47;1.48;;;16.20;99.90;;;;;;4947881;28;20717;-71
2024/04/05 07:58:15;;;;;;;4.25;1.30;;;16.20;99.90;;;;;;4950237;28;20042;-70
2024/04/05 08:00:41;;;;;;;7.50;1.25;;;16.00;99.90;;;;;;4949023;28;20031;-70
2024/04/05 08:03:07;;;;;;;8.15;1.27;;;16.00;99.90;;;;;;4953241;28;20208;-70
2024/04/05 08:05:35;;;;;;;7.10;1.50;;;16.00;99.90;;;;;;4949271;28;20024;-69
2024/04/05 08:08:01;;;;;;;5.30;0.90;;;15.90;99.90;;;;;;4952993;28;20035;-69
2024/04/05 08:10:30;;;;;;;10.43;1.60;;;15.90;99.90;;;;;;4950846;28;20039;-70
2024/04/05 08:13:00;;;;;;;11.95;1.52;;;15.80;99.90;;;;;;4953011;28;20031;-72
2024/04/05 08:15:26;;;;;;;12.05;1.50;;;15.90;99.90;;;;;;4950669;28;20047;-71
2024/04/05 08:17:52;;;;;;;7.50;1.17;;;16.20;99.90;;;;;;4952790;28;20041;-68
2024/04/05 08:20:21;;;;;;;6.85;1.33;;;16.50;99.90;;;;;;4952126;28;20122;-67
2024/04/05 08:22:46;;;;;;;3.78;0.90;;;16.60;99.90;;;;;;4953122;28;20039;-67
2024/04/05 08:25:13;;;;;;;7.82;1.35;;;16.60;99.90;;;;;;4950642;28;20082;-67
2024/04/05 08:27:42;;;;;;;5.38;1.05;;;16.60;99.90;;;;;;4952710;28;20030;-67
2024/04/05 08:30:12;;;;;;;10.73;1.58;;;16.70;99.90;;;;;;4950637;28;20031;-69
2024/04/05 08:32:42;;;;;;;5.53;1.00;;;16.80;99.90;;;;;;4951710;28;20766;-68
2024/04/05 08:35:09;;;;;;;10.50;1.52;;;16.70;99.90;;;;;;4949590;28;20050;-69
2024/04/05 08:37:38;;;;;;;8.25;1.65;;;16.80;99.90;;;;;;4949105;28;20502;-69
2024/04/05 08:40:05;;;;;;;4.30;0.93;;;16.80;99.90;;;;;;4948942;28;20032;-68
2024/04/05 08:42:33;;;;;;;7.63;1.10;;;16.80;99.90;;;;;;4951221;28;20030;-68
2024/04/05 08:45:00;;;;;;;8.40;1.10;;;16.80;99.90;;;;;;4947368;28;20035;-69
2024/04/05 08:47:26;;;;;;;6.10;1.40;;;16.90;99.90;;;;;;4949572;28;20134;-68
2024/04/05 08:49:54;;;;;;;6.15;0.93;;;16.80;99.90;;;;;;4949595;28;20027;-68
2024/04/05 08:52:20;;;;;;;2.00;0.82;;;16.90;99.90;;;;;;4950903;28;20085;-68
2024/04/05 08:54:45;;;;;;;6.07;1.48;;;17.20;99.90;;;;;;4952295;28;20038;-70
2024/04/05 08:57:13;;;;;;;5.32;1.33;;;17.50;99.90;;;;;;4951711;28;20038;-71
2024/04/05 08:59:39;;;;;;;9.02;1.00;;;17.90;99.90;;;;;;4950420;28;20115;-69
2024/04/05 09:02:09;;;;;;;5.03;1.15;;;18.20;99.90;;;;;;4951450;28;20126;-71
2024/04/05 09:04:36;;;;;;;3.88;1.00;;;18.20;99.90;;;;;;4950542;28;20041;-71
2024/04/05 09:07:04;;;;;;;3.75;0.90;;;18.20;99.90;;;;;;4951601;28;20035;-71
2024/04/05 09:09:32;;;;;;;3.92;1.20;;;18.00;99.90;;;;;;4948514;28;20026;-67
2024/04/05 09:12:07;;;;;;;3.38;1.25;;;17.60;99.90;;;;;;4949641;28;20039;-71
2024/04/05 09:14:37;;;;;;;5.30;1.30;;;17.40;99.90;;;;;;4949898;28;20039;-70
2024/04/05 09:17:15;;;;;;;7.25;1.02;;;17.40;99.90;;;;;;4950839;28;20070;-71
2024/04/05 09:19:42;;;;;;;3.53;1.17;;;17.40;99.90;;;;;;4950046;28;20039;-71
2024/04/05 09:22:17;;;;;;;3.83;1.13;;;17.30;99.90;;;;;;4950799;28;20027;-68
2024/04/05 09:24:45;;;;;;;8.23;1.88;;;17.20;99.90;;;;;;4949848;28;20614;-68
2024/04/05 09:27:11;;;;;;;8.25;1.92;;;17.30;99.90;;;;;;4948471;28;20050;-68
2024/04/05 09:29:37;;;;;;;4.22;1.30;;;17.10;99.90;;;;;;4951514;28;20027;-67
2024/04/05 09:32:03;;;;;;;2.97;1.20;;;16.90;99.90;;;;;;4950514;28;20169;-67
2024/04/05 09:34:32;;;;;;;3.17;1.00;;;16.80;99.90;;;;;;4951011;28;20031;-70
2024/04/05 09:36:58;;;;;;;8.50;1.40;;;16.70;99.90;;;;;;4949219;28;20031;-72
2024/04/05 09:39:25;;;;;;;6.00;1.38;;;16.60;99.90;;;;;;4950724;28;20042;-70
2024/04/05 09:41:57;;;;;;;5.47;1.30;;;16.60;99.90;;;;;;4949988;28;20031;-68
2024/04/05 09:44:24;;;;;;;2.70;1.20;;;16.60;99.90;;;;;;4951267;28;20031;-69
2024/04/05 09:46:52;;;;;;;4.70;1.08;;;16.80;99.90;;;;;;4947078;28;20043;-69
2024/04/05 09:49:20;;;;;;;6.63;1.15;;;16.90;99.90;;;;;;4949722;28;20035;-67
2024/04/05 09:51:49;;;;;;;5.95;1.45;;;17.20;99.90;;;;;;4949091;28;20089;-72
2024/04/05 09:54:17;;;;;;;2.83;1.02;;;17.80;99.90;;;;;;4951519;28;20062;-69
2024/04/05 09:56:44;;;;;;;8.93;1.58;;;18.60;99.90;;;;;;4949743;28;20039;-70
2024/04/05 09:59:12;;;;;;;6.80;1.55;;;19.00;99.90;;;;;;4950440;28;20031;-69
2024/04/05 10:01:41;;;;;;;4.18;0.93;;;19.40;99.90;;;;;;4949921;28;20035;-72
2024/04/05 10:04:08;;;;;;;5.97;1.05;;;19.70;99.90;;;;;;4948066;28;20035;-71
2024/04/05 10:06:42;;;;;;;5.45;0.98;;;19.80;99.90;;;;;;4948363;28;20118;-67
2024/04/05 10:09:18;;;;;;;7.38;1.40;;;19.70;99.90;;;;;;4949659;28;20122;-71
2024/04/05 10:11:45;;;;;;;4.53;1.40;;;19.70;99.90;;;;;;4947562;28;20035;-69
2024/04/05 10:14:25;;;;;;;6.30;1.25;;;19.50;99.90;;;;;;4949508;28;20046;-69
2024/04/05 10:16:52;;;;;;;5.35;1.25;;;19.30;99.90;;;;;;4948924;28;20063;-70
2024/04/05 10:19:28;;;;;;;3.05;0.95;;;19.20;99.90;;;;;;4948301;28;20130;-69
2024/04/05 10:22:11;;;;;;;4.85;1.30;;;19.40;99.90;;;;;;4948510;28;20070;-69
2024/04/05 10:24:37;;;;;;;4.28;1.33;;;19.70;99.90;;;;;;4949361;28;20023;-69
2024/04/05 10:27:04;;;;;;;5.78;1.30;;;20.00;99.90;;;;;;4949724;28;20027;-69
2024/04/05 10:29:32;;;;;;;9.70;1.67;;;20.30;99.90;;;;;;4948954;28;20039;-69
2024/04/05 10:32:01;;;;;;;5.35;1.33;;;20.60;99.90;;;;;;4948952;28;20039;-69
2024/04/05 10:34:28;;;;;;;8.13;1.58;;;20.80;99.90;;;;;;4949091;28;20150;-69
2024/04/05 10:36:58;;;;;;;4.65;1.30;;;20.90;99.90;;;;;;4948291;28;20070;-69
2024/04/05 10:39:24;;;;;;;5.05;1.38;;;20.60;99.90;;;;;;4950589;28;20094;-69
2024/04/05 10:41:50;;;;;;;4.80;1.00;;;20.60;99.90;;;;;;4946007;28;20034;-70
2024/04/05 10:44:18;;;;;;;5.35;1.13;;;20.70;99.90;;;;;;4950690;28;20031;-71
2024/04/05 10:46:50;;;;;;;6.20;1.65;;;21.10;99.90;;;;;;4947195;28;20034;-69
2024/04/05 10:49:19;;;;;;;6.07;1.20;;;21.40;99.90;;;;;;4953878;28;20039;-70
2024/04/05 10:51:46;;;;;;;7.70;1.77;;;21.40;99.00;;;;;;4946372;28;20035;-70
2024/04/05 10:54:16;;;;;;;3.08;1.20;;;20.90;99.20;;;;;;4948416;28;20035;-70
2024/04/05 10:56:43;;;;;;;5.40;1.40;;;20.60;99.90;;;;;;4945055;28;20035;-70
2024/04/05 10:59:11;;;;;;;7.35;1.95;;;20.40;99.90;;;;;;4948957;28;20043;-71
2024/04/05 11:01:38;;;;;;;3.95;1.23;;;20.40;99.90;;;;;;4945445;28;20031;-70
2024/04/05 11:04:05;;;;;;;6.18;1.60;;;20.80;99.90;;;;;;4949797;28;20030;-70
2024/04/05 11:06:32;;;;;;;5.10;1.35;;;20.90;99.30;;;;;;4948074;28;20031;-71
2024/04/05 11:08:59;;;;;;;2.50;0.85;;;20.80;98.70;;;;;;4950196;28;20042;-72
2024/04/05 11:11:27;;;;;;;5.35;1.30;;;20.70;99.00;;;;;;4946895;28;20031;-74
2024/04/05 11:14:03;;;;;;;6.38;1.40;;;20.60;99.80;;;;;;4943705;28;20035;-73
2024/04/05 11:16:30;;;;;;;4.82;1.20;;;20.50;99.80;;;;;;4947996;28;20038;-73
2024/04/05 11:18:56;;;;;;;6.88;1.77;;;20.30;99.90;;;;;;4949463;28;20130;-73
2024/04/05 11:21:22;;;;;;;4.88;1.00;;;19.80;99.90;;;;;;4946892;28;20035;-73
2024/04/05 11:23:51;;;;;;;9.73;1.48;;;19.50;99.90;;;;;;4948231;28;20038;-73
2024/04/05 11:26:30;;;;;;;6.38;1.35;;;19.10;99.90;;;;;;4947060;28;20027;-73
2024/04/05 11:29:02;;;;;;;5.75;1.13;;;19.00;99.90;;;;;;4949429;28;20035;-73
2024/04/05 11:31:29;;;;;;;6.22;1.45;;;18.80;99.90;;;;;;4946927;28;20142;-73
2024/04/05 11:33:56;;;;;;;4.60;1.10;;;18.70;99.90;;;;;;4953085;28;20680;-73
2024/04/05 11:36:23;;;;;;;7.85;1.40;;;18.60;99.90;;;;;;4950616;28;20058;-73
2024/04/05 11:38:49;;;;;;;4.30;1.15;;;18.60;99.90;;;;;;4953159;28;20070;-73
2024/04/05 11:41:16;;;;;;;2.85;0.80;;;18.70;99.90;;;;;;4950602;28;20487;-73
2024/04/05 11:43:43;;;;;;;4.97;1.45;;;18.80;99.90;;;;;;4954173;28;20041;-73
2024/04/05 11:46:08;;;;;;;8.25;1.20;;;19.00;99.90;;;;;;4949964;28;20035;-73
2024/04/05 11:48:34;;;;;;;6.80;1.13;;;19.30;99.90;;;;;;4952926;28;20038;-73
2024/04/05 11:51:01;;;;;;;6.28;1.05;;;19.30;99.90;;;;;;4952863;28;20039;-73
2024/04/05 11:53:27;;;;;;;4.28;1.38;;;19.30;99.90;;;;;;4952590;28;20063;-72
2024/04/05 11:55:53;;;;;;;6.10;1.63;;;19.40;99.90;;;;;;4954650;28;20046;-73
2024/04/05 11:58:19;;;;;;;4.95;0.95;;;19.50;99.90;;;;;;4950710;28;20034;-70
2024/04/05 12:00:48;;;;;;;5.30;1.42;;;19.70;99.90;;;;;;4949939;28;20118;-71
2024/04/05 12:03:17;;;;;;;3.20;1.13;;;19.80;99.90;;;;;;4951542;28;20053;-71
2024/04/05 12:05:44;;;;;;;3.65;1.70;;;20.00;99.90;;;;;;4949603;28;20031;-71
2024/04/05 12:08:12;;;;;;;4.35;1.33;;;20.10;99.90;;;;;;4950662;28;20027;-70
2024/04/05 12:10:39;;;;;;;4.55;1.50;;;20.10;99.90;;;;;;4950497;28;20562;-70
2024/04/05 12:13:05;;;;;;;4.07;1.30;;;20.10;99.90;;;;;;4953815;28;20381;-71
2024/04/05 12:15:32;;;;;;;4.00;1.33;;;20.10;99.90;;;;;;4952117;28;20525;-71
2024/04/05 12:17:58;;;;;;;4.20;1.13;;;20.10;99.90;;;;;;4953173;28;20039;-71
2024/04/05 12:20:24;;;;;;;5.72;1.48;;;20.20;99.90;;;;;;4950077;28;20090;-70
2024/04/05 12:22:49;;;;;;;5.57;0.90;;;20.20;99.90;;;;;;4952994;28;20037;-70
2024/04/05 12:25:16;;;;;;;5.30;1.48;;;20.30;99.90;;;;;;4952609;28;20039;-71
2024/04/05 12:27:43;;;;;;;4.38;1.05;;;20.30;99.90;;;;;;4947656;28;20051;-68
2024/04/05 12:30:10;;;;;;;4.38;1.15;;;20.40;99.90;;;;;;4951201;28;20035;-70
2024/04/05 12:32:39;;;;;;;4.32;0.80;;;20.40;99.90;;;;;;4952628;28;20081;-70
2024/04/05 12:35:06;;;;;;;6.03;1.42;;;20.10;99.90;;;;;;4949754;28;20038;-70
2024/04/05 12:37:37;;;;;;;3.78;1.13;;;19.90;99.90;;;;;;4951490;28;20039;-70
2024/04/05 12:40:14;;;;;;;3.38;1.10;;;19.80;99.90;;;;;;4949393;28;20341;-70
2024/04/05 12:42:39;;;;;;;3.53;1.20;;;19.70;99.90;;;;;;4951147;28;20042;-69
2024/04/05 12:45:08;;;;;;;6.13;1.33;;;19.70;99.90;;;;;;4950353;28;20026;-70